KFWN

Sussex Airport

Sussex, New Jersey, USA
METAR KFWN 151853Z AUTO 00000KT 8SM BKN037 OVC046 M05/M11 A2993 RMK AO2 SNB34E51 SLP142 P0000 T10501106
Observed Flight Rules
Dec-15 @ 18:53 UTC (54 minutes ago) Visual Flight Rules
Wind Visibility Clouds
Calm 8 miles
  • Broken at 3,700' AGL
  • Overcast at 4,600' AGL
Temperatures Readings Precipitation
Current -5°C / 23°F
Dewpoint -11°C / 12°F
Humidity 63%
Altimeter 29.93" Hg
Pressure 1014.2 hPa
Elevation 133
Current Rain 0.005
METAR KFWN 151853Z AUTO 00000KT 8SM BKN037 OVC046 M05/M11 A2993 RMK AO2 SNB34E51 SLP142 P0000 T10501106
Observed Flight Rules
Dec-15 @ 18:53 UTC
(54 minutes ago)
VFR
Wind Visibility
Calm 8 miles
Clouds
  • Broken at 3,700' AGL
  • Overcast at 4,600' AGL
Temperature Dewpoint
-5°C / 23°F -11°C / 12°F
Humidity Altimeter Pressure
63% 29.93" Hg 1014.2 hPa
Current Rain
0.005